^^

METAR Αεροδρομίων

σε ακτίνα 500 χλμ


 Τι είναι το METAR ??? 

Πρώτο είναι το πλησιέστερο αεροδρόμιο (Θεσ/νίκη LGTS 6χλμ) και
τέλος το πιο απομακρυσμένο (Κων/πολη LTBA 494χλμ).
Επίσης μερικές αναφορές, παρουσιάζουν λιγότερα στοιχεία γιατί
οι αρχικές είναι ελλιπείς ή έχουν λάθος μορφοποίηση.
Πηγαίνετε στις Αναφορές METAR από Μετεωρολογικούς Σταθμούς )  
Αλφαβητική Λίστα Γρήγορης Μετάβασης στα 48 Αεροδρόμια
Αλβανία: Τίρανα  Βουλγαρία: Γκόρνα Οριαχόβιτσα  Μπουργκάς  Σόφια  Φιλιππούπολη  Ελλάδα: Αθήνα  Αλεξανδρούπολη  Ανδραβίδα  Βόλος  Ελευσίνα  Ζάκυνθος  Θεσσαλονίκη  Ιωάννινα  Καβάλα  Καλαμάτα  Κέρκυρα  Κεφαλονιά  Κοζάνη  Κύθηρα
Λέσβος  Λήμνος  Μύκονος  Νάξος  Πάρος  Πάτρα  Πρέβεζα  Σάμος  Σκιάθος  Σκύρος  Σύρος  Χίος  Ιταλία: Γκαλατίνα  Μπρίντιζι  Σάντα Μαρία ντι Λέουκα  Ταράντο  Κόσοβο: Πρίστινα  Κροατία: Ντουμπρόβνικ  Μαυροβούνιο: Ποντγκόριτσα  Τιβάτ
Δ.Β.Μ: Οχρίδα  Σκόπια  Ρουμανία: Κραϊόβα  Σερβία: Κράλιεβο  Νις  Ούζιτσε  Τουρκία: Κωνσταντινούπολη  Σμύρνη Τσορλού 
(ΒΠΑ)Βάση Πολεμικής Αεροπορίας
LGTS - Αεροδρόμιο "Μακεδονία"
Θεσσαλονίκη - Κεντρική Μακεδονία - Ελλάδα
Γ.Πλάτ: 40.5167 - Γ.Μήκ: 22.9667 - Υψόμ: 7μ
Απόσταση από το Vouhead Weather: (Ν) 6χλμ
Ενημερώθηκε: 29/01/2020 11:20
Διάσπαρτα νέφη
Διάσπαρτα νέφη
 Άνεμος από ΑΝΑ
Άνεμος: ΑΝΑ 9 km/h
Θερμοκρασία: 17°C
Σημ. Δρόσου: 7°C
Υγρασία: 52%
Βαρόμετρο: 1009 hPa
Σύννεφα: Διάσπαρτα νέφη
Ορατότητα: 10 km
Ανάλυση νέφωσης: Διάσπαρτα νέφη 914 m
2020/01/29 09:20 LGTS 290920Z 11005KT 9999 FEW030 17/07 Q1009 NOSIG
LGKZ - Αεροδρόμιο "Φίλιππος"
Κοζάνη - Δυτική Μακεδονία - Ελλάδα
Γ.Πλάτ: 40.2833 - Γ.Μήκ: 21.8333 - Υψόμ: 628μ
Απόσταση από το Vouhead Weather: (ΔΝΔ) 102χλμ
Ενημερώθηκε: 29/01/2020 10:50
Μερικώς νεφελώδης
Μερικώς νεφελώδης
 Άνεμος από calm
Άνεμος: Απνοια
Θερμοκρασία: 12°C
Σημ. Δρόσου: 2°C
Υγρασία: 51%
Βαρόμετρο: 1011 hPa
Σύννεφα: Μερικώς νεφελώδης
Ορατότητα: 10 km
Ανάλυση νέφωσης: Διάσπαρτα νέφη 762 m
Μερικώς νεφελώδης 2134 m
2020/01/29 08:50 LGKZ 290850Z 00000KT 9999 FEW025 SCT070 12/02 Q1011
 
LGKV - Αεροδρόμιο "Μέγας Αλέξανδρος"
Καβάλα(Χρυσούπολη) - Α. Μακεδονία & Θράκη - Ελλάδα
Γ.Πλάτ: 40.9167 - Γ.Μήκ: 24.6167 - Υψόμ: 5μ
Απόσταση από το Vouhead Weather: (ΑΒΑ) 144χλμ
Ενημερώθηκε: 29/01/2020 11:20
Μερικώς νεφελώδης
Μερικώς νεφελώδης
 Άνεμος από ΝΔ
Άνεμος: ΝΔ 20 km/h
Θερμοκρασία: 13°C
Σημ. Δρόσου: 9°C
Υγρασία: 77%
Βαρόμετρο: 1009 hPa
Σύννεφα: Μερικώς νεφελώδης
Ορατότητα: 10 km
Ανάλυση νέφωσης: Διάσπαρτα νέφη 610 m
Μερικώς νεφελώδης 2438 m
2020/01/29 09:20 LGKV 290920Z 22011KT 9999 FEW020 SCT080 13/09 Q1009
LGBL - Αεροδρόμιο στη Νέα Αγχίαλο
Βόλος(Αλμυρός) - Θεσσαλία - Ελλάδα
Γ.Πλάτ: 39.2167 - Γ.Μήκ: 22.8000 - Υψόμ: 26μ
Απόσταση από το Vouhead Weather: (Ν) 151χλμ
Ενημερώθηκε: 29/01/2020 11:20
Μερικώς νεφελώδης
Μερικώς νεφελώδης
 Άνεμος από Δ
Άνεμος: Δ 24 km/h
Θερμοκρασία: 18°C
Σημ. Δρόσου: 5°C
Υγρασία: 43%
Βαρόμετρο: 1011 hPa
Σύννεφα: Μερικώς νεφελώδης
Ορατότητα: 10 km
Ανάλυση νέφωσης: Διάσπαρτα νέφη 914 m
Μερικώς νεφελώδης 2438 m
2020/01/29 09:20 LGBL 290920Z 26013KT 9999 FEW030 SCT080 18/05 Q1011
 
LGSK - Αεροδρόμ. "Αλέξανδρος Παπαδιαμάντης"
Σκιάθος - Θεσσαλία(Σποράδες) - Ελλάδα
Γ.Πλάτ: 39.1833 - Γ.Μήκ: 23.5000 - Υψόμ: 15μ
Απόσταση από το Vouhead Weather: (ΝΝΑ) 160χλμ
Ενημερώθηκε: 29/01/2020 10:50
Διάσπαρτα νέφη
Διάσπαρτα νέφη
 Άνεμος από ΔΝΔ
Άνεμος: ΔΝΔ 7 km/h
Θερμοκρασία: 16°C
Σημ. Δρόσου: 7°C
Υγρασία: 55%
Βαρόμετρο: 1012 hPa
Σύννεφα: Διάσπαρτα νέφη
Ορατότητα: 10 km
Ανάλυση νέφωσης: Διάσπαρτα νέφη 762 m
2020/01/29 08:50 LGSK 290850Z 24004KT 9999 FEW025 16/07 Q1012
LWSK - Αεροδρόμιο "Σκόπγιε Ιντερνάσιοναλ Έιρπορτ"
Σκόπια(Πέτροβακ) - Περιφέρεια Σκοπίων - Δ.Β.Μ
Γ.Πλάτ: 41.9667 - Γ.Μήκ: 21.6333 - Υψόμ: 239μ
Απόσταση από το Vouhead Weather: (ΒΔ) 192χλμ
Ενημερώθηκε: 29/01/2020 12:00
Κυρίως νεφελώδης
Κυρίως νεφελώδης
 Άνεμος από ΒΑ
Άνεμος: ΒΑ 11 km/h
Θερμοκρασία: 6°C
Ψυχρότητα Ανέμου: 4°C
Σημ. Δρόσου: 4°C
Υγρασία: 87%
Βαρόμετρο: 1013 hPa
Σύννεφα: Κυρίως νεφελώδης
Ορατότητα: 10 km
Ανάλυση νέφωσης: Μερικώς νεφελώδης 457 m
Κυρίως νεφελώδης 914 m
Κυρίως νεφελώδης 1920 m
2020/01/29 10:00 LWSK 291000Z 04006KT 9999 SCT015 BKN030 BKN063 06/04 Q1013 NOSIG
 
LWOH - Αεροδρόμιο "Σεντ Πολ Δε Απόστλ"
Οχρίδα - Νοτιοδυτική Περιφέρεια - Δ.Β.Μ
Γ.Πλάτ: 41.9667 - Γ.Μήκ: 21.6333 - Υψόμ: 239μ
Απόσταση από το Vouhead Weather: (ΔΒΔ) 193χλμ
Ενημερώθηκε: 29/01/2020 11:30
Βροχή, Κυρίως νεφελώδης
Βροχή, Κυρίως νεφελώδης
 Άνεμος από ΝΝΑ
Άνεμος: ΝΝΑ 15 km/h
Θερμοκρασία: 8°C
Ψυχρότητα Ανέμου: 5°C
Σημ. Δρόσου: 5°C
Υγρασία: 82%
Βαρόμετρο: 1012 hPa
Περίληψη: Βροχή
Σύννεφα: Κυρίως νεφελώδης
Ορατότητα: 8 km
Ανάλυση νέφωσης: Διάσπαρτα νέφη 610 m
Μερικώς νεφελώδης 914 m
Κυρίως νεφελώδης 1219 m
2020/01/29 09:30 LWOH 290930Z 15008KT 8000 RA FEW020 SCT030TCU BKN040 08/05 Q1012
LGLM - Αεροδρόμιο "Ήφαιστος"
Λήμνος - Βόρειο Αιγαίο - Ελλάδα
Γ.Πλάτ: 39.9167 - Γ.Μήκ: 25.2333 - Υψόμ: 5μ
Απόσταση από το Vouhead Weather: (ΑΝΑ) 205χλμ
Ενημερώθηκε: 29/01/2020 11:20
Διάσπαρτα νέφη
Διάσπαρτα νέφη
 Άνεμος από ΝΔ
Άνεμος: ΝΔ 24 km/h
Θερμοκρασία: 16°C
Σημ. Δρόσου: 10°C
Υγρασία: 68%
Βαρόμετρο: 1011 hPa
Σύννεφα: Διάσπαρτα νέφη
Ορατότητα: 10 km
Ανάλυση νέφωσης: Διάσπαρτα νέφη 610 m
2020/01/29 09:20 LGLM 290920Z 23013KT 9999 FEW020 16/10 Q1011
 
LGIO - Αεροδρόμιο "Βασιλεύς Πύρρος"
Ιωάννινα - Ήπειρος - Ελλάδα
Γ.Πλάτ: 39.7000 - Γ.Μήκ: 20.8167 - Υψόμ: 476μ
Απόσταση από το Vouhead Weather: (ΔΝΔ) 207χλμ
Ενημερώθηκε: 29/01/2020 11:20
Ασθενής βροχή, Κυρίως νεφελώδης
Ασθενής βροχή, Κυρίως νεφελώδης
 Άνεμος από Μεταβλητός
Άνεμος: Μεταβλητός 4 km/h
Θερμοκρασία: 9°C
Σημ. Δρόσου: 9°C
Υγρασία: 100%
Βαρόμετρο: 1014 hPa
Περίληψη: Ασθενής βροχή
Σύννεφα: Κυρίως νεφελώδης
Ορατότητα: 7 km
Ανάλυση νέφωσης: Διάσπαρτα νέφη 91 m
Μερικώς νεφελώδης 488 m
Κυρίως νεφελώδης 914 m
2020/01/29 09:20 LGIO 290920Z VRB02KT 7000 -RA FEW003 SCT016 BKN030 09/09 Q1014
LGSY - Αεροδρόμιο στη Σκύρο
Σκύρος - Θεσσαλία(Σποράδες) - Ελλάδα
Γ.Πλάτ: 38.9667 - Γ.Μήκ: 24.4833 - Υψόμ: 15μ
Απόσταση από το Vouhead Weather: (ΝΑ) 220χλμ
Ενημερώθηκε: 29/01/2020 10:50
Αίθριος
Αίθριος
 Άνεμος από ΔΝΔ
Άνεμος: ΔΝΔ 15 km/h
Θερμοκρασία: 17°C
Σημ. Δρόσου: 6°C
Υγρασία: 49%
Βαρόμετρο: 1012 hPa
Περίληψη: Αίθριος
Ορατότητα: Μεγαλύτερη από 10 km
2020/01/29 08:50 LGSY 290850Z 24008KT CAVOK 17/06 Q1012 RMK BKN180 BLU
 
LBPD - Αεροδρόμιο στη Φιλιππούπολη
Φιλιππούπολη(Κρούμοβο) - Πλόβντιβ - Βουλγαρία
Γ.Πλάτ: 42.1333 - Γ.Μήκ: 24.8000 - Υψόμ: 185μ
Απόσταση από το Vouhead Weather: (ΒΑ) 231χλμ
Ενημερώθηκε: 29/01/2020 11:30
Ασθενής βροχή, Showers, Νεφοσκεπής
Ασθενής βροχή, Showers, Νεφοσκεπής
 Άνεμος από Δ
Άνεμος: Δ 31 km/h
Θερμοκρασία: 9°C
Ψυχρότητα Ανέμου: 5°C
Σημ. Δρόσου: 3°C
Υγρασία: 66%
Βαρόμετρο: 1011 hPa
Περίληψη: Ασθενής βροχή, Showers
Σύννεφα: Νεφοσκεπής
Ορατότητα: 10 km
Ανάλυση νέφωσης: Κυρίως νεφελώδης 1494 m
Νεφοσκεπής 2164 m
2020/01/29 09:30 LBPD 290930Z AUTO 28017KT 9999 -SHRA BKN049 OVC071 09/03 Q1011 NOSIG
LBSF - Αεροδρόμιο στη Σόφια
Σόφια(Βράτσντεμπνα) - Μητρ. περ. Σόφιας - Βουλγαρία
Γ.Πλάτ: 42.6500 - Γ.Μήκ: 23.3833 - Υψόμ: 595μ
Απόσταση από το Vouhead Weather: (Β) 234χλμ
Ενημερώθηκε: 29/01/2020 11:30
Διάσπαρτα νέφη
Διάσπαρτα νέφη
 Άνεμος από ΔΒΔ
Άνεμος: ΔΒΔ 24 km/h
Θερμοκρασία: 4°C
Ψυχρότητα Ανέμου: -1°C
Σημ. Δρόσου: 2°C
Υγρασία: 87%
Βαρόμετρο: 1011 hPa
Σύννεφα: Διάσπαρτα νέφη
Ορατότητα: 10 km
Ανάλυση νέφωσης: Διάσπαρτα νέφη 549 m
2020/01/29 09:30 LBSF 290930Z 30013KT 9999 FEW018 04/02 Q1011 R99/29//95 NOSIG
 
LGAL - Αεροδρόμιο "Δημόκριτος"
Αλεξανδρούπολη - Α. Μακεδονία & Θράκη - Ελλάδα
Γ.Πλάτ: 40.8500 - Γ.Μήκ: 25.9167 - Υψόμ: 3μ
Απόσταση από το Vouhead Weather: (Α) 250χλμ
Ενημερώθηκε: 29/01/2020 11:20
Διάσπαρτα νέφη
Διάσπαρτα νέφη
 Άνεμος από ΔΝΔ
Άνεμος: ΔΝΔ 19 km/h
Θερμοκρασία: 13°C
Σημ. Δρόσου: 12°C
Υγρασία: 94%
Βαρόμετρο: 1010 hPa
Σύννεφα: Διάσπαρτα νέφη
Ορατότητα: 10 km
Ανάλυση νέφωσης: Διάσπαρτα νέφη 762 m
2020/01/29 09:20 LGAL 290920Z 25010KT 9999 FEW025 13/12 Q1010
BKPR - Αεροδρόμιο "Αντεμ Γιασάρι"
Πρίστινα - Πρίστινα - Κόσοβο
(Ελληνικό Υπουργείο Εξωτερικών, σχετικά με το Κόσοβο)
Γ.Πλάτ: 42.5833 - Γ.Μήκ: 21.0333 - Υψόμ: 576μ
Απόσταση από το Vouhead Weather: (ΒΔ) 276χλμ
Ενημερώθηκε: 29/01/2020 12:00
Κυρίως νεφελώδης
Κυρίως νεφελώδης
 Άνεμος από Β
Άνεμος: Β 7 km/h
Θερμοκρασία: 6°C
Ψυχρότητα Ανέμου: 4°C
Σημ. Δρόσου: 0°C
Υγρασία: 66%
Βαρόμετρο: 1012 hPa
Σύννεφα: Κυρίως νεφελώδης
Ορατότητα: 10 km
Ανάλυση νέφωσης: Μερικώς νεφελώδης 914 m
Κυρίως νεφελώδης 2134 m
2020/01/29 10:00 BKPR 291000Z 36004KT 9999 SCT030 BKN070 06/00 Q1012 NOSIG RMK 17290095
 
LGKR - Αεροδρόμιο "Ιωάννης Καποδίστριας"
Κέρκυρα - Ιόνιοι Νήσοι - Ελλάδα
Γ.Πλάτ: 39.6000 - Γ.Μήκ: 19.9167 - Υψόμ: 2μ
Απόσταση από το Vouhead Weather: (ΔΝΔ) 281χλμ
Ενημερώθηκε: 29/01/2020 11:20
Κυρίως νεφελώδης
Κυρίως νεφελώδης
 Άνεμος από ΔΝΔ
Άνεμος: ΔΝΔ 15 km/h
Θερμοκρασία: 15°C
Σημ. Δρόσου: 12°C
Υγρασία: 82%
Βαρόμετρο: 1014 hPa
Σύννεφα: Κυρίως νεφελώδης
Ορατότητα: 10 km
Ανάλυση νέφωσης: Διάσπαρτα νέφη 518 m
Κυρίως νεφελώδης 762 m
Κυρίως νεφελώδης 2438 m
2020/01/29 09:20 LGKR 290920Z 24008KT 9999 FEW017 BKN025 BKN080 15/12 Q1014 NOSIG
LATI - Αεροδρόμιο "Μάδερ Τερέζα"
Τίρανα(Ρίνα) - Τίρανα - Αλβανία
Γ.Πλάτ: 41.3167 - Γ.Μήκ: 19.7667 - Υψόμ: 90μ
Απόσταση από το Vouhead Weather: (ΔΒΔ) 282χλμ
Ενημερώθηκε: 29/01/2020 11:50
Ασθενής βροχή, Νεφοσκεπής
Ασθενής βροχή, Νεφοσκεπής
 Άνεμος από ΝΔ
Άνεμος: ΝΔ 6 km/h
Θερμοκρασία: 15°C
Σημ. Δρόσου: 11°C
Υγρασία: 77%
Βαρόμετρο: 1012 hPa
Περίληψη: Ασθενής βροχή
Σύννεφα: Νεφοσκεπής
Ορατότητα: 10 km
Ανάλυση νέφωσης: Μερικώς νεφελώδης 640 m
Κυρίως νεφελώδης 1006 m
Νεφοσκεπής 1829 m
2020/01/29 09:50 LATI 290950Z 23003KT 190V280 9999 -RA SCT021 BKN033 OVC060 15/11 Q1012 NOSIG
 
LGEL - Αεροδρόμιο στην Ελευσίνα(ΒΠΑ)
Ελευσίνα - Αττική - Ελλάδα
Γ.Πλάτ: 38.0667 - Γ.Μήκ: 23.5500 - Υψόμ: 31μ
Απόσταση από το Vouhead Weather: (Ν) 282χλμ
Ενημερώθηκε: 29/01/2020 11:20
Διάσπαρτα νέφη
Διάσπαρτα νέφη
 Άνεμος από Δ
Άνεμος: Δ 13 km/h
Θερμοκρασία: 17°C
Σημ. Δρόσου: 6°C
Υγρασία: 49%
Βαρόμετρο: 1013 hPa
Σύννεφα: Διάσπαρτα νέφη
Ορατότητα: 10 km
Ανάλυση νέφωσης: Διάσπαρτα νέφη 914 m
2020/01/29 09:20 LGEL 290920Z 26007KT 9999 FEW030 17/06 Q1013
LGPZ - Αεροδρόμιο στη Πρέβεζα
Πρέβεζα(Ακτιον) - Ήπειρος - Ελλάδα
Γ.Πλάτ: 38.6167 - Γ.Μήκ: 20.7667 - Υψόμ: 4μ
Απόσταση από το Vouhead Weather: (ΝΔ) 288χλμ
Ενημερώθηκε: 29/01/2020 11:20
Κυρίως νεφελώδης
Κυρίως νεφελώδης
 Άνεμος από ΝΔ
Άνεμος: ΝΔ 26 km/h
Θερμοκρασία: 16°C
Σημ. Δρόσου: 12°C
Υγρασία: 77%
Βαρόμετρο: 1015 hPa
Σύννεφα: Κυρίως νεφελώδης
Ορατότητα: 10 km
Ανάλυση νέφωσης: Διάσπαρτα νέφη 549 m
Μερικώς νεφελώδης 762 m
Κυρίως νεφελώδης 2134 m
2020/01/29 09:20 LGPZ 290920Z 23014KT 9999 FEW018 SCT025 BKN070 16/12 Q1015
 
LGRX - Αεροδρόμιο στη Πάτρα(ΒΠΑ)
Πάτρα(Αραξος) - Δυτική Ελλάδα - Ελλάδα
Γ.Πλάτ: 38.1667 - Γ.Μήκ: 21.4167 - Υψόμ: 15μ
Απόσταση από το Vouhead Weather: (ΝΝΔ) 299χλμ
Ενημερώθηκε: 29/01/2020 11:20
Κυρίως νεφελώδης
Κυρίως νεφελώδης
 Άνεμος από ΝΝΔ
Άνεμος: ΝΝΔ 19 km/h
Θερμοκρασία: 16°C
Σημ. Δρόσου: 11°C
Υγρασία: 72%
Βαρόμετρο: 1016 hPa
Σύννεφα: Κυρίως νεφελώδης
Ορατότητα: 10 km
Ανάλυση νέφωσης: Μερικώς νεφελώδης 610 m
Κυρίως νεφελώδης 1067 m
2020/01/29 09:20 LGRX 290920Z 20010KT 9999 SCT020 BKN035 16/11 Q1016
LGAV - Αεροδρόμιο "Ελευθέριος Βεμιζέλος"
Αθήνα(Σπάτα) - Αττική - Ελλάδα
Γ.Πλάτ: 37.9333 - Γ.Μήκ: 23.9500 - Υψόμ: 94μ
Απόσταση από το Vouhead Weather: (ΝΝΑ) 305χλμ
Ενημερώθηκε: 29/01/2020 11:20
Διάσπαρτα νέφη
Διάσπαρτα νέφη
 Άνεμος από ΔΝΔ
Άνεμος: ΔΝΔ 24 km/h
Θερμοκρασία: 16°C
Σημ. Δρόσου: 6°C
Υγρασία: 52%
Βαρόμετρο: 1015 hPa
Σύννεφα: Διάσπαρτα νέφη
Ορατότητα: 10 km
Ανάλυση νέφωσης: Διάσπαρτα νέφη 914 m
2020/01/29 09:20 LGAV 290920Z 24013KT 9999 FEW030 16/06 Q1015 NOSIG
 
LYNI - Αεροδρόμιο "Κονσταντίν Δε Γκρέιτ"
Νις - Νότια και Ανατολική Σερβία - Σερβία
Γ.Πλάτ: 43.3167 - Γ.Μήκ: 21.8833 - Υψόμ: 202μ
Απόσταση από το Vouhead Weather: (ΒΒΔ) 319χλμ
Ενημερώθηκε: 29/01/2020 11:30
Κυρίως νεφελώδης
Κυρίως νεφελώδης
 Άνεμος από Α
Άνεμος: Α 6 km/h
Θερμοκρασία: 4°C
Σημ. Δρόσου: 2°C
Υγρασία: 87%
Βαρόμετρο: 1014 hPa
Σύννεφα: Κυρίως νεφελώδης
Ορατότητα: 10 km
Ανάλυση νέφωσης: Μερικώς νεφελώδης 244 m
Κυρίως νεφελώδης 701 m
2020/01/29 09:30 LYNI 290930Z 09003KT 050V150 9999 SCT008 BKN023 04/02 Q1014 NOSIG
LGAD - Αεροδρόμιο στην Ανδραβίδα(ΒΠΑ)
Ανδραβίδα - Δυτική Ελλάδα - Ελλάδα
Γ.Πλάτ: 37.9167 - Γ.Μήκ: 21.2667 - Υψόμ: 12μ
Απόσταση από το Vouhead Weather: (ΝΝΔ) 329χλμ
Ενημερώθηκε: 29/01/2020 11:20
Κυρίως νεφελώδης
Κυρίως νεφελώδης
 Άνεμος από ΔΝΔ
Άνεμος: ΔΝΔ 11 km/h
Θερμοκρασία: 16°C
Σημ. Δρόσου: 13°C
Υγρασία: 83%
Βαρόμετρο: 1016 hPa
Σύννεφα: Κυρίως νεφελώδης
Ορατότητα: 10 km
Ανάλυση νέφωσης: Διάσπαρτα νέφη 610 m
Κυρίως νεφελώδης 1219 m
2020/01/29 09:20 LGAD 290920Z 24006KT 9999 FEW020 BKN040 16/13 Q1016
 
LGKF - Αεροδρόμιο στην Κεφαλονιά
Κεφαλονιά - Ιόνιοι Νήσοι - Ελλάδα
Γ.Πλάτ: 38.1167 - Γ.Μήκ: 20.5000 - Υψόμ: 18μ
Απόσταση από το Vouhead Weather: (ΝΔ) 346χλμ
Ενημερώθηκε: 29/01/2020 10:50
Κυρίως νεφελώδης
Κυρίως νεφελώδης
 Άνεμος από Δ
Άνεμος: Δ 20 km/h
Θερμοκρασία: 15°C
Σημ. Δρόσου: 12°C
Υγρασία: 82%
Βαρόμετρο: 1017 hPa
Σύννεφα: Κυρίως νεφελώδης
Ορατότητα: 10 km
Ανάλυση νέφωσης: Διάσπαρτα νέφη 427 m
Μερικώς νεφελώδης 549 m
Κυρίως νεφελώδης 762 m
2020/01/29 08:50 LGKF 290850Z 26011KT 9999 FEW014 SCT018 BKN025 15/12 Q1017
LGMT - Αεροδρόμιο "Οδυσσέας Ελύτης"
Λέσβος - Βόρειο Αιγαίο - Ελλάδα
Γ.Πλάτ: 39.0500 - Γ.Μήκ: 26.6000 - Υψόμ: 17μ
Απόσταση από το Vouhead Weather: (ΑΝΑ) 353χλμ
Ενημερώθηκε: 29/01/2020 11:20
Μερικώς νεφελώδης
Μερικώς νεφελώδης
 Άνεμος από ΝΝΔ
Άνεμος: ΝΝΔ 19 km/h, Ριπή: 37 km/h
Θερμοκρασία: 15°C
Σημ. Δρόσου: 10°C
Υγρασία: 72%
Βαρόμετρο: 1014 hPa
Σύννεφα: Μερικώς νεφελώδης
Ορατότητα: 10 km
Ανάλυση νέφωσης: Μερικώς νεφελώδης 610 m
2020/01/29 09:20 LGMT 290920Z 21010G20KT 130V240 9999 SCT020 15/10 Q1014
 
LGZA - Αεροδρόμιο "Διονύσιος Σολωμός"
Ζάκυνθος - Ιόνιοι Νήσοι - Ελλάδα
Γ.Πλάτ: 37.7500 - Γ.Μήκ: 20.8667 - Υψόμ: 3μ
Απόσταση από το Vouhead Weather: (ΝΝΔ) 362χλμ
Ενημερώθηκε: 29/01/2020 10:50
Κυρίως νεφελώδης
Κυρίως νεφελώδης
 Άνεμος από ΝΔ
Άνεμος: ΝΔ 9 km/h
Θερμοκρασία: 15°C
Σημ. Δρόσου: 11°C
Υγρασία: 77%
Βαρόμετρο: 1017 hPa
Σύννεφα: Κυρίως νεφελώδης
Ορατότητα: 10 km
Ανάλυση νέφωσης: Διάσπαρτα νέφη 549 m
Κυρίως νεφελώδης 610 m
2020/01/29 08:50 LGZA 290850Z 23005KT 9999 FEW018 BKN020 15/11 Q1017
LBGO - Αεροδρόμιο στη Γκόρνα Οριαχόβιτσα
Γκόρνα Οριαχόβιτσα - Βέλικο Τάρνοβο - Βουλγαρία
Γ.Πλάτ: 43.1500 - Γ.Μήκ: 25.7167 - Υψόμ: 86μ
Απόσταση από το Vouhead Weather: (ΒΑ) 366χλμ
Ενημερώθηκε: 29/01/2020 11:30
Ασθενής βροχή, Showers, Μερικώς νεφελώδης
Ασθενής βροχή, Showers, Μερικώς νεφελώδης
 Άνεμος από Δ
Άνεμος: Δ 26 km/h
Θερμοκρασία: 8°C
Ψυχρότητα Ανέμου: 4°C
Σημ. Δρόσου: 4°C
Υγρασία: 76%
Βαρόμετρο: 1009 hPa
Περίληψη: Ασθενής βροχή, Showers
Σύννεφα: Μερικώς νεφελώδης
Ορατότητα: 10 km
Ανάλυση νέφωσης: Διάσπαρτα νέφη 823 m
Μερικώς νεφελώδης 2256 m
2020/01/29 09:30 LBGO 290930Z AUTO 26014KT 9999 -SHRA FEW027 SCT074 08/04 Q1009 NOSIG
 
LGHI - Αεροδρόμιο "Όμηρος"
Χίος - Ιόνιοι Νήσοι - Ελλάδα
Γ.Πλάτ: 38.3167 - Γ.Μήκ: 26.1167 - Υψόμ: 4μ
Απόσταση από το Vouhead Weather: (ΝΑ) 368χλμ
Ενημερώθηκε: 29/01/2020 10:50
Διάσπαρτα νέφη
Διάσπαρτα νέφη
 Άνεμος από Ν
Άνεμος: Ν 19 km/h
Θερμοκρασία: 17°C
Σημ. Δρόσου: 12°C
Υγρασία: 73%
Βαρόμετρο: 1014 hPa
Σύννεφα: Διάσπαρτα νέφη
Ορατότητα: 10 km
Ανάλυση νέφωσης: Διάσπαρτα νέφη 610 m
2020/01/29 08:50 LGHI 290850Z 18010KT 9999 FEW020 17/12 Q1014
LYPG - Αεροδρόμιο στη Ποντγκόριτσα
Ποντγκόριτσα - Γκολούμποβτσι - Μαυροβούνιο
Γ.Πλάτ: 42.3667 - Γ.Μήκ: 19.2500 - Υψόμ: 43μ
Απόσταση από το Vouhead Weather: (ΒΔ) 369χλμ
Ενημερώθηκε: 29/01/2020 11:30
Κυρίως νεφελώδης
Κυρίως νεφελώδης
 Άνεμος από ΒΒΑ
Άνεμος: ΒΒΑ 6 km/h
Θερμοκρασία: 11°C
Σημ. Δρόσου: 10°C
Υγρασία: 94%
Βαρόμετρο: 1011 hPa
Σύννεφα: Κυρίως νεφελώδης
Ορατότητα: 10 km
Ανάλυση νέφωσης: Μερικώς νεφελώδης 914 m
Κυρίως νεφελώδης 2438 m
2020/01/29 09:30 LYPG 290930Z 03003KT 340V050 9999 SCT030 BKN080 11/10 Q1011 NOSIG
 
LGSO - Αεροδρόμιο "Δημήτριος Βικέλας"
Σύρος - Νότιο Αιγαίο - Ελλάδα
Γ.Πλάτ: 37.4167 - Γ.Μήκ: 24.9500 - Υψόμ: 72μ
Απόσταση από το Vouhead Weather: (ΝΝΑ) 390χλμ
Ενημερώθηκε: 29/01/2020 11:20

 Άνεμος από ΝΔ
Άνεμος: ΝΔ 26 km/h
Θερμοκρασία: 16°C
Σημ. Δρόσου: 8°C
Υγρασία: 59%
Βαρόμετρο: 1015 hPa
2020/01/29 09:20 LGSO 290920Z AUTO 23014KT 210V280 //// // ////// 16/08 Q1015 RE//
LGKL - Αεροδρόμιο στη Καλαμάτα(ΒΠΑ)
Καλαμάτα - Πελοπόννησος - Ελλάδα
Γ.Πλάτ: 37.0667 - Γ.Μήκ: 22.0167 - Υψόμ: 8μ
Απόσταση από το Vouhead Weather: (ΝΝΔ) 398χλμ
Ενημερώθηκε: 29/01/2020 11:20
Αχλύς, Κυρίως νεφελώδης
Αχλύς, Κυρίως νεφελώδης
 Άνεμος από calm
Άνεμος: Απνοια
Θερμοκρασία: 15°C
Σημ. Δρόσου: 10°C
Υγρασία: 72%
Βαρόμετρο: 1018 hPa
Περίληψη: Αχλύς
Σύννεφα: Κυρίως νεφελώδης
Ορατότητα: 8 km
Ανάλυση νέφωσης: Μερικώς νεφελώδης 610 m
Κυρίως νεφελώδης 1067 m
2020/01/29 09:20 LGKL 290920Z 00000KT 8000 4000SE BR SCT020 BKN035 15/10 Q1018
 
LIBY - Αεροδρόμιο στη Σάντα Μαρία ντι Λέουκα
Σάντα Μαρία ντι Λέουκα - Απουλία(Λέτσε) - Ιταλία
Γ.Πλάτ: 39.8167 - Γ.Μήκ: 18.3500 - Υψόμ: 112μ
Απόσταση από το Vouhead Weather: (Δ) 402χλμ
Ενημερώθηκε: 29/01/2020 10:55
Αίθριος
Αίθριος
 Άνεμος από Δ
Άνεμος: Δ 26 km/h
Θερμοκρασία: 15°C
Σημ. Δρόσου: 9°C
Υγρασία: 68%
Βαρόμετρο: 1013 hPa
Περίληψη: Αίθριος
Ορατότητα: Μεγαλύτερη από 10 km
2020/01/29 08:55 LIBY 290855Z 27014KT CAVOK 15/09 Q1013 RMK FEW FEW200 QUK 4 QUL 2 W VIS MAR 15 KM VIS MIN 9999
LGMK - Αεροδρόμιο στη Μύκονο
Μύκονος - Νότιο Αιγαίο - Ελλάδα
Γ.Πλάτ: 37.4333 - Γ.Μήκ: 25.3500 - Υψόμ: 123μ
Απόσταση από το Vouhead Weather: (ΝΝΑ) 404χλμ
Ενημερώθηκε: 29/01/2020 11:20
Διάσπαρτα νέφη
Διάσπαρτα νέφη
 Άνεμος από ΝΔ
Άνεμος: ΝΔ 19 km/h
Θερμοκρασία: 15°C
Σημ. Δρόσου: 6°C
Υγρασία: 55%
Βαρόμετρο: 1015 hPa
Σύννεφα: Διάσπαρτα νέφη
Ορατότητα: 10 km
Ανάλυση νέφωσης: Διάσπαρτα νέφη 1067 m
2020/01/29 09:20 LGMK 290920Z 22010KT 9999 FEW035 15/06 Q1015
 
LYTV - Αεροδρόμιο στο Τιβάτ
Τιβάτ - Τιβάτ - Μαυροβούνιο
Γ.Πλάτ: 42.3833 - Γ.Μήκ: 18.7167 - Υψόμ: 5μ
Απόσταση από το Vouhead Weather: (ΔΒΔ) 408χλμ
Ενημερώθηκε: 29/01/2020 11:30
Μερικώς νεφελώδης
Μερικώς νεφελώδης
 Άνεμος από Μεταβλητός
Άνεμος: Μεταβλητός 4 km/h
Θερμοκρασία: 15°C
Σημ. Δρόσου: 9°C
Υγρασία: 68%
Βαρόμετρο: 1011 hPa
Σύννεφα: Μερικώς νεφελώδης
Ορατότητα: 10 km
Ανάλυση νέφωσης: Διάσπαρτα νέφη 610 m
Μερικώς νεφελώδης 914 m
2020/01/29 09:30 LYTV 290930Z VRB02KT 9999 FEW020 SCT030 15/09 Q1011 NOSIG
LIBN - Αεροδρόμιο στη Γκαλατίνα(ΒΠΑ)
Γκαλατίνα - Απουλία(Λέτσε) - Ιταλία
Γ.Πλάτ: 40.2167 - Γ.Μήκ: 18.1333 - Υψόμ: 61μ
Απόσταση από το Vouhead Weather: (Δ) 412χλμ
Ενημερώθηκε: 29/01/2020 10:55
Διάσπαρτα νέφη
Διάσπαρτα νέφη
 Άνεμος από Δ
Άνεμος: Δ 26 km/h
Θερμοκρασία: 16°C
Σημ. Δρόσου: 10°C
Υγρασία: 68%
Βαρόμετρο: 1013 hPa
Σύννεφα: Διάσπαρτα νέφη
Ορατότητα: 10 km
Ανάλυση νέφωσης: Διάσπαρτα νέφη 1219 m
2020/01/29 08:55 LIBN 290855Z 26014KT 9999 FEW040 16/10 Q1013 RMK BKN SCT090 BKN200 VIS MIN 9999 WIND THR14 26012KT WIND THR32 26012KT BLU
 
LYKV - Αεροδρόμιο στο Κράλιεβο & Λάντεβτσι
Κράλιεβο(Όμπρβα) - Σουμαντίγια και Δ. Σερβία - Σερβία
Γ.Πλάτ: 43.8167 - Γ.Μήκ: 20.5833 - Υψόμ: 209μ
Απόσταση από το Vouhead Weather: (ΒΒΔ) 412χλμ
Ενημερώθηκε: 29/01/2020 11:30
Αίθριος
Αίθριος
 Άνεμος από Μεταβλητός
Άνεμος: Μεταβλητός 4 km/h
Θερμοκρασία: 6°C
Σημ. Δρόσου: 6°C
Υγρασία: 100%
Βαρόμετρο: 1012 hPa
Περίληψη: Αίθριος
Ορατότητα: Μεγαλύτερη από 10 km
2020/01/29 09:30 LYKV 290930Z VRB02KT CAVOK 06/06 Q1012 NOSIG
LTBU - Αεροδρόμιο στο Τσορλού(ΒΠΑ)
Τσορλού - Μαρμαράς(Τεκιρντάγ-Ραιδεστός) - Τουρκία
Γ.Πλάτ: 41.1167 - Γ.Μήκ: 27.9167 - Υψόμ: 173μ
Απόσταση από το Vouhead Weather: (Α) 420χλμ
Ενημερώθηκε: 29/01/2020 11:20
Αίθριος
Αίθριος
 Άνεμος από ΝΝΔ
Άνεμος: ΝΝΔ 30 km/h
Θερμοκρασία: 13°C
Σημ. Δρόσου: 9°C
Υγρασία: 77%
Βαρόμετρο: 1010 hPa
Περίληψη: Αίθριος
Ορατότητα: Μεγαλύτερη από 10 km
2020/01/29 09:20 LTBU 290920Z 20016KT CAVOK 13/09 Q1010
 
LRCV - Αεροδρόμιο στη Κραϊόβα
Κραϊόβα - Δολζ - Ρουμανία
Γ.Πλάτ: 44.3167 - Γ.Μήκ: 23.8833 - Υψόμ: 191μ
Απόσταση από το Vouhead Weather: (Β) 424χλμ
Ενημερώθηκε: 29/01/2020 11:30
Αίθριος
Αίθριος
 Άνεμος από ΔΒΔ
Άνεμος: ΔΒΔ 39 km/h
Θερμοκρασία: 7°C
Ψυχρότητα Ανέμου: 2°C
Σημ. Δρόσου: 2°C
Υγρασία: 71%
Βαρόμετρο: 1007 hPa
Περίληψη: Αίθριος
Ορατότητα: Μεγαλύτερη από 10 km
2020/01/29 09:30 LRCV 290930Z 29021KT CAVOK 07/02 Q1007 R27/19//95
LIBR - Αεροδρόμιο στο Μπρίντιζι
(Ανεπίσημο όνομα αεροδρομίου: Ντελ Σαλέντο)
Μπρίντιζι(Πάπολα-Καζάλε) - Απουλία(Μπρίντιζι) - Ιταλία
Γ.Πλάτ: 40.6500 - Γ.Μήκ: 17.9500 - Υψόμ: 10μ
Απόσταση από το Vouhead Weather: (Δ) 424χλμ
Ενημερώθηκε: 29/01/2020 11:20
Αίθριος
Αίθριος
 Άνεμος από ΝΔ
Άνεμος: ΝΔ 9 km/h
Θερμοκρασία: 16°C
Σημ. Δρόσου: 8°C
Υγρασία: 59%
Βαρόμετρο: 1013 hPa
Περίληψη: Αίθριος
Ορατότητα: Μεγαλύτερη από 10 km
2020/01/29 09:20 LIBR 290920Z 23005KT CAVOK 16/08 Q1013
 
LBBG - Αεροδρόμιο στo Μπουργκάς
Μπουργκάς(Σαράφοβο) - Μπουργκάς - Βουλγαρία
Γ.Πλάτ: 42.5000 - Γ.Μήκ: 27.4833 - Υψόμ: 28μ
Απόσταση από το Vouhead Weather: (ΑΒΑ) 432χλμ
Ενημερώθηκε: 29/01/2020 11:30
Αίθριος
Αίθριος
 Άνεμος από Δ
Άνεμος: Δ 24 km/h
Θερμοκρασία: 12°C
Σημ. Δρόσου: 8°C
Υγρασία: 77%
Βαρόμετρο: 1007 hPa
Περίληψη: Αίθριος
Ορατότητα: Μεγαλύτερη από 10 km
2020/01/29 09:30 LBBG 290930Z 27013KT CAVOK 12/08 Q1007 NOSIG
LGPA - Αεροδρόμιο "Παντελαίειο"
Πάρος - Νότιο Αιγαίο - Ελλάδα
Γ.Πλάτ: 37.0000 - Γ.Μήκ: 25.0667 - Υψόμ: 36μ
Απόσταση από το Vouhead Weather: (ΝΝΑ) 436χλμ
Ενημερώθηκε: 29/01/2020 11:20

 Άνεμος από ΔΝΔ
Άνεμος: ΔΝΔ 19 km/h
Θερμοκρασία: 16°C
Σημ. Δρόσου: 8°C
Υγρασία: 59%
Βαρόμετρο: 1016 hPa
2020/01/29 09:20 LGPA 290920Z AUTO 24010KT //// // ////// 16/08 Q1016 RE//
 
LGNX - Αεροδρόμιο στη Νάξο
Νάξος - Νότιο Αιγαίο - Ελλάδα
Γ.Πλάτ: 37.0833 - Γ.Μήκ: 25.3667 - Υψόμ: 4μ
Απόσταση από το Vouhead Weather: (ΝΝΑ) 439χλμ
Ενημερώθηκε: 29/01/2020 10:50
Διάσπαρτα νέφη
Διάσπαρτα νέφη
 Άνεμος από ΝΔ
Άνεμος: ΝΔ 17 km/h
Θερμοκρασία: 15°C
Σημ. Δρόσου: 7°C
Υγρασία: 59%
Βαρόμετρο: 1016 hPa
Σύννεφα: Διάσπαρτα νέφη
Ορατότητα: 10 km
Ανάλυση νέφωσης: Διάσπαρτα νέφη 762 m
2020/01/29 08:50 LGNX 290850Z 22009KT 9999 FEW025 15/07 Q1016
LTBJ - Αεροδρόμιο "Αντνάν Μεντερές"
Σμύρνη - Αιγαίο(Σμύρνη) - Τουρκία
Γ.Πλάτ: 38.2667 - Γ.Μήκ: 27.1333 - Υψόμ: 120μ
Απόσταση από το Vouhead Weather: (ΝΑ) 439χλμ
Ενημερώθηκε: 29/01/2020 11:20
Μερικώς νεφελώδης
Μερικώς νεφελώδης
 Άνεμος από ΝΑ
Άνεμος: ΝΑ 15 km/h
Θερμοκρασία: 12°C
Σημ. Δρόσου: 9°C
Υγρασία: 82%
Βαρόμετρο: 1016 hPa
Σύννεφα: Μερικώς νεφελώδης
Ορατότητα: 10 km
Ανάλυση νέφωσης: Μερικώς νεφελώδης 914 m
Μερικώς νεφελώδης 3048 m
2020/01/29 09:20 LTBJ 290920Z 13008KT 9999 SCT030 SCT100 12/09 Q1016 NOSIG
 
LDDU - Αεροδρόμιο στο Ντουμπρόβνικ
Ντουμπρόβνικ - Ντουμπρόβνικ Νερέτβα - Κροατία
Γ.Πλάτ: 42.5667 - Γ.Μήκ: 18.2667 - Υψόμ: 165μ
Απόσταση από το Vouhead Weather: (ΔΒΔ) 450χλμ
Ενημερώθηκε: 29/01/2020 11:30
Διάσπαρτα νέφη
Διάσπαρτα νέφη
 Άνεμος από Μεταβλητός
Άνεμος: Μεταβλητός 4 km/h
Θερμοκρασία: 13°C
Σημ. Δρόσου: 9°C
Υγρασία: 77%
Βαρόμετρο: 1011 hPa
Σύννεφα: Διάσπαρτα νέφη
Ορατότητα: 10 km
Ανάλυση νέφωσης: Διάσπαρτα νέφη 792 m
2020/01/29 09:30 LDDU 290930Z VRB02KT 9999 FEW026 13/09 Q1011 NOSIG
LYUZ - Αεροδρόμιο στην Ούζιτσε & Πόνικβε
(Ανεπίσημο όνομα αεροδρομίου: Λέπα Γκλάβα)
Ούζιτσε - Σουμαντίγια και Δ. Σερβία - Σερβία
Γ.Πλάτ: 43.9000 - Γ.Μήκ: 19.7000 - Υψόμ: 904μ
Απόσταση από το Vouhead Weather: (ΒΔ) 458χλμ
Ενημερώθηκε: 29/01/2020 11:30
Αίθριος
Αίθριος
 Άνεμος από ΝΔ
Άνεμος: ΝΔ 7 km/h
Θερμοκρασία: 1°C
Ψυχρότητα Ανέμου: -2°C
Σημ. Δρόσου: -1°C
Υγρασία: 87%
Βαρόμετρο: 1010 hPa
Περίληψη: Αίθριος
Ορατότητα: Μεγαλύτερη από 10 km
2020/01/29 09:30 LYUZ 290930Z 22004KT 160V280 CAVOK 01/M01 Q1010
 
LGSM - Αεροδρόμιο "Αρίσταρχος ο Σάμιος"
Σάμος - Βόρειο Αιγαίο - Ελλάδα
Γ.Πλάτ: 37.6833 - Γ.Μήκ: 26.9167 - Υψόμ: 6μ
Απόσταση από το Vouhead Weather: (ΝΑ) 467χλμ
Ενημερώθηκε: 29/01/2020 11:20
Μερικώς νεφελώδης
Μερικώς νεφελώδης
 Άνεμος από ΝΑ
Άνεμος: ΝΑ 17 km/h
Θερμοκρασία: 14°C
Σημ. Δρόσου: 10°C
Υγρασία: 77%
Βαρόμετρο: 1015 hPa
Σύννεφα: Μερικώς νεφελώδης
Ορατότητα: 10 km
Ανάλυση νέφωσης: Μερικώς νεφελώδης 549 m
2020/01/29 09:20 LGSM 290920Z 14009KT 9999 SCT018 14/10 Q1015
LIBG - Αεροδρόμιο "Μαρτσέλο Αρλόττα"
Μουντιάζι(Ταράντο-Γκροτάλιε)-Απουλία(Ταράντο)-Ιταλία
Γ.Πλάτ: 40.5167 - Γ.Μήκ: 17.3833 - Υψόμ: 69μ
Απόσταση από το Vouhead Weather: (Δ) 472χλμ
Ενημερώθηκε: 29/01/2020 10:50
Αίθριος
Αίθριος
 Άνεμος από Μεταβλητός
Άνεμος: Μεταβλητός 6 km/h
Θερμοκρασία: 13°C
Σημ. Δρόσου: 10°C
Υγρασία: 82%
Βαρόμετρο: 1013 hPa
Περίληψη: Αίθριος
Ορατότητα: Μεγαλύτερη από 10 km
2020/01/29 08:50 LIBG 290850Z VRB03KT CAVOK 13/10 Q1013
 
LGKC - Αεροδρόμιο στα Κύθηρα
Κύθηρα(Επτάνησα) - Αττική(Νήσοι) - Ελλάδα
Γ.Πλάτ: 36.2833 - Γ.Μήκ: 23.0167 - Υψόμ: 319μ
Απόσταση από το Vouhead Weather: (Ν) 476χλμ
Ενημερώθηκε: 28/01/2020 14:50
ΜΗ ΠΡΟΣΦΑΤΟ METAR
Διάσπαρτα νέφη
Διάσπαρτα νέφη
 Άνεμος από Δ
Άνεμος: Δ 37 km/h
Θερμοκρασία: 15°C
Σημ. Δρόσου: 11°C
Υγρασία: 77%
Βαρόμετρο: 1017 hPa
Σύννεφα: Διάσπαρτα νέφη
Ορατότητα: 10 km
Ανάλυση νέφωσης: Διάσπαρτα νέφη 396 m
2020/01/28 12:50 LGKC 281250Z 28020KT 9999 FEW013 15/11 Q1017
LTBA - Αεροδρόμιο "Ατατούρκ"
Κωνσταντινούπολη - Μαρμαράς(Κων/πολη) - Τουρκία
Γ.Πλάτ: 40.9667 - Γ.Μήκ: 28.8167 - Υψόμ: 37μ
Απόσταση από το Vouhead Weather: (Α) 494χλμ
Ενημερώθηκε: 29/01/2020 11:20
Αίθριος
Αίθριος
 Άνεμος από Ν
Άνεμος: Ν 28 km/h
Θερμοκρασία: 12°C
Σημ. Δρόσου: 7°C
Υγρασία: 72%
Βαρόμετρο: 1011 hPa
Περίληψη: Αίθριος
Ορατότητα: Μεγαλύτερη από 10 km
2020/01/29 09:20 LTBA 290920Z 19015KT CAVOK 12/07 Q1011 NOSIG
   Μην χρησιμοποιήσετε τα στοιχεία για αποφάσεις που αφορούν ζωές και πάσης φύσεως ιδιοκτησίες  
ΠΗΓΑΙΝΕΤΕ ΣΤΗΝ ΙΟΝΙΑ ΠΗΓΑΙΝΕΤΕ ΣΤΗΝ ΡΕΑ ΠΗΓΑΙΝΕΤΕ ΣΤΗΝ ΚΗΦΙΣΙΑ ΠΗΓΑΙΝΕΤΕ ΣΤΗΝ ΣΥΡΟ ΠΗΓΑΙΝΕΤΕ ΣΤΗΝ ΔΕΞΑΜΕΝΗ (BOLTEK) ΠΗΓΑΙΝΕΤΕ ΣΤΗΝ ΔΕΞΑΜΕΝΗ (LR) Γενική Γραμματεία Πολιτικής Προστασίας Ενιαίος Ευρωπαϊκός Αριθμός Έκτακτης Ανάγκης Βίντεο για το Καστελλόριζο(Μεγίστη) από τα αρχεία της ΕΡΤ Ιστοσελίδα Δήμου Μεγίστης Δείτε το μεγαλύτερο